sensor_id;sensor_type;location;lat;lon;timestamp;P1;durP1;ratioP1;P2;durP2;ratioP2
76344;SDS011;65160;50.504;3.666;2023-02-28T00:00:18;10.05;;;6.45;;
76344;SDS011;65160;50.504;3.666;2023-02-28T00:02:44;11.45;;;6.18;;
76344;SDS011;65160;50.504;3.666;2023-02-28T00:05:11;11.55;;;7.05;;
76344;SDS011;65160;50.504;3.666;2023-02-28T00:07:38;14.25;;;7.13;;
76344;SDS011;65160;50.504;3.666;2023-02-28T00:10:05;12.63;;;7.22;;
76344;SDS011;65160;50.504;3.666;2023-02-28T00:12:32;11.02;;;6.50;;
76344;SDS011;65160;50.504;3.666;2023-02-28T00:14:58;11.85;;;7.00;;
76344;SDS011;65160;50.504;3.666;2023-02-28T00:17:24;13.18;;;6.75;;
76344;SDS011;65160;50.504;3.666;2023-02-28T00:19:50;10.70;;;6.90;;
76344;SDS011;65160;50.504;3.666;2023-02-28T00:22:19;10.68;;;6.55;;
76344;SDS011;65160;50.504;3.666;2023-02-28T00:24:46;11.52;;;7.40;;
76344;SDS011;65160;50.504;3.666;2023-02-28T00:27:12;11.10;;;6.57;;
76344;SDS011;65160;50.504;3.666;2023-02-28T00:29:38;10.13;;;6.03;;
76344;SDS011;65160;50.504;3.666;2023-02-28T00:32:04;9.43;;;6.57;;
76344;SDS011;65160;50.504;3.666;2023-02-28T00:34:30;11.70;;;7.03;;
76344;SDS011;65160;50.504;3.666;2023-02-28T00:36:56;13.27;;;7.03;;
76344;SDS011;65160;50.504;3.666;2023-02-28T00:39:21;12.05;;;6.95;;
76344;SDS011;65160;50.504;3.666;2023-02-28T00:41:47;11.23;;;6.60;;
76344;SDS011;65160;50.504;3.666;2023-02-28T00:44:13;9.73;;;7.18;;
76344;SDS011;65160;50.504;3.666;2023-02-28T00:46:38;9.73;;;6.50;;
76344;SDS011;65160;50.504;3.666;2023-02-28T00:49:04;10.88;;;6.68;;
76344;SDS011;65160;50.504;3.666;2023-02-28T00:51:29;15.20;;;7.45;;
76344;SDS011;65160;50.504;3.666;2023-02-28T00:53:55;13.45;;;6.88;;
76344;SDS011;65160;50.504;3.666;2023-02-28T00:56:20;12.30;;;6.57;;
76344;SDS011;65160;50.504;3.666;2023-02-28T00:58:46;10.60;;;6.90;;
76344;SDS011;65160;50.504;3.666;2023-02-28T01:01:11;12.05;;;6.32;;
76344;SDS011;65160;50.504;3.666;2023-02-28T01:03:37;11.23;;;6.40;;
76344;SDS011;65160;50.504;3.666;2023-02-28T01:06:03;14.85;;;7.43;;
76344;SDS011;65160;50.504;3.666;2023-02-28T01:08:29;11.30;;;6.55;;
76344;SDS011;65160;50.504;3.666;2023-02-28T01:10:55;10.55;;;6.10;;
76344;SDS011;65160;50.504;3.666;2023-02-28T01:13:20;14.85;;;7.70;;
76344;SDS011;65160;50.504;3.666;2023-02-28T01:15:51;10.95;;;6.75;;
76344;SDS011;65160;50.504;3.666;2023-02-28T01:18:19;11.93;;;7.03;;
76344;SDS011;65160;50.504;3.666;2023-02-28T01:20:46;11.52;;;6.55;;
76344;SDS011;65160;50.504;3.666;2023-02-28T01:23:11;13.05;;;7.43;;
76344;SDS011;65160;50.504;3.666;2023-02-28T01:25:37;13.38;;;6.88;;
76344;SDS011;65160;50.504;3.666;2023-02-28T01:28:03;11.35;;;7.07;;
76344;SDS011;65160;50.504;3.666;2023-02-28T01:30:28;12.63;;;7.65;;
76344;SDS011;65160;50.504;3.666;2023-02-28T01:32:54;14.30;;;7.13;;
76344;SDS011;65160;50.504;3.666;2023-02-28T01:35:19;12.80;;;7.85;;
76344;SDS011;65160;50.504;3.666;2023-02-28T01:37:45;10.40;;;6.70;;
76344;SDS011;65160;50.504;3.666;2023-02-28T01:40:11;10.50;;;6.28;;
76344;SDS011;65160;50.504;3.666;2023-02-28T01:42:37;10.70;;;7.05;;
76344;SDS011;65160;50.504;3.666;2023-02-28T01:47:41;10.27;;;7.28;;
76344;SDS011;65160;50.504;3.666;2023-02-28T01:50:09;11.15;;;7.00;;
76344;SDS011;65160;50.504;3.666;2023-02-28T01:52:41;11.82;;;6.95;;
76344;SDS011;65160;50.504;3.666;2023-02-28T01:55:08;11.27;;;7.22;;
76344;SDS011;65160;50.504;3.666;2023-02-28T01:57:38;13.98;;;7.68;;
76344;SDS011;65160;50.504;3.666;2023-02-28T02:00:15;18.58;;;6.97;;
76344;SDS011;65160;50.504;3.666;2023-02-28T02:02:45;12.68;;;7.07;;
76344;SDS011;65160;50.504;3.666;2023-02-28T02:05:23;10.65;;;7.50;;
76344;SDS011;65160;50.504;3.666;2023-02-28T02:07:52;13.55;;;7.28;;
76344;SDS011;65160;50.504;3.666;2023-02-28T02:13:08;10.90;;;7.18;;
76344;SDS011;65160;50.504;3.666;2023-02-28T02:38:09;16.25;;;7.88;;
76344;SDS011;65160;50.504;3.666;2023-02-28T02:43:19;13.05;;;7.35;;
76344;SDS011;65160;50.504;3.666;2023-02-28T02:45:55;14.55;;;7.90;;
76344;SDS011;65160;50.504;3.666;2023-02-28T02:48:26;10.95;;;7.45;;
76344;SDS011;65160;50.504;3.666;2023-02-28T02:50:55;12.07;;;7.53;;
76344;SDS011;65160;50.504;3.666;2023-02-28T02:53:32;11.90;;;8.43;;
76344;SDS011;65160;50.504;3.666;2023-02-28T02:56:02;12.95;;;6.95;;
76344;SDS011;65160;50.504;3.666;2023-02-28T02:58:32;13.50;;;8.10;;
76344;SDS011;65160;50.504;3.666;2023-02-28T03:01:06;13.55;;;7.97;;
76344;SDS011;65160;50.504;3.666;2023-02-28T03:03:35;11.93;;;8.05;;
76344;SDS011;65160;50.504;3.666;2023-02-28T03:06:00;17.25;;;7.80;;
76344;SDS011;65160;50.504;3.666;2023-02-28T03:08:28;13.18;;;7.70;;
76344;SDS011;65160;50.504;3.666;2023-02-28T03:10:59;12.98;;;7.47;;
76344;SDS011;65160;50.504;3.666;2023-02-28T03:21:42;14.55;;;8.00;;
76344;SDS011;65160;50.504;3.666;2023-02-28T03:24:27;13.48;;;7.65;;
76344;SDS011;65160;50.504;3.666;2023-02-28T03:29:51;12.82;;;8.95;;
76344;SDS011;65160;50.504;3.666;2023-02-28T03:32:44;12.88;;;7.75;;
76344;SDS011;65160;50.504;3.666;2023-02-28T03:35:32;16.17;;;8.93;;
76344;SDS011;65160;50.504;3.666;2023-02-28T03:38:15;15.35;;;8.07;;
76344;SDS011;65160;50.504;3.666;2023-02-28T03:40:50;15.23;;;8.65;;
76344;SDS011;65160;50.504;3.666;2023-02-28T03:43:22;14.38;;;7.97;;
76344;SDS011;65160;50.504;3.666;2023-02-28T03:45:52;11.27;;;7.60;;
76344;SDS011;65160;50.504;3.666;2023-02-28T03:48:34;15.93;;;8.27;;
76344;SDS011;65160;50.504;3.666;2023-02-28T03:51:02;15.50;;;7.97;;
76344;SDS011;65160;50.504;3.666;2023-02-28T03:53:32;12.75;;;8.07;;
76344;SDS011;65160;50.504;3.666;2023-02-28T03:56:06;13.15;;;7.90;;
76344;SDS011;65160;50.504;3.666;2023-02-28T04:01:32;13.68;;;8.23;;
76344;SDS011;65160;50.504;3.666;2023-02-28T04:04:04;13.60;;;8.57;;
76344;SDS011;65160;50.504;3.666;2023-02-28T04:06:30;15.85;;;8.45;;
76344;SDS011;65160;50.504;3.666;2023-02-28T04:08:57;14.20;;;7.78;;
76344;SDS011;65160;50.504;3.666;2023-02-28T04:14:09;13.15;;;8.63;;
76344;SDS011;65160;50.504;3.666;2023-02-28T04:16:36;13.80;;;8.52;;
76344;SDS011;65160;50.504;3.666;2023-02-28T04:19:04;14.98;;;8.80;;
76344;SDS011;65160;50.504;3.666;2023-02-28T04:22:03;14.30;;;8.68;;
76344;SDS011;65160;50.504;3.666;2023-02-28T04:26:52;17.10;;;8.30;;
76344;SDS011;65160;50.504;3.666;2023-02-28T04:29:23;16.02;;;8.68;;
76344;SDS011;65160;50.504;3.666;2023-02-28T04:31:53;15.77;;;9.35;;
76344;SDS011;65160;50.504;3.666;2023-02-28T04:34:20;21.45;;;9.15;;
76344;SDS011;65160;50.504;3.666;2023-02-28T04:36:46;13.38;;;9.35;;
76344;SDS011;65160;50.504;3.666;2023-02-28T04:39:14;13.18;;;8.57;;
76344;SDS011;65160;50.504;3.666;2023-02-28T04:41:42;14.70;;;8.80;;
76344;SDS011;65160;50.504;3.666;2023-02-28T04:44:07;16.30;;;9.60;;
76344;SDS011;65160;50.504;3.666;2023-02-28T04:46:33;14.88;;;8.80;;
76344;SDS011;65160;50.504;3.666;2023-02-28T04:48:58;13.30;;;8.75;;
76344;SDS011;65160;50.504;3.666;2023-02-28T04:51:24;15.25;;;9.57;;
76344;SDS011;65160;50.504;3.666;2023-02-28T04:53:49;14.45;;;9.05;;
76344;SDS011;65160;50.504;3.666;2023-02-28T04:56:16;13.48;;;8.82;;
76344;SDS011;65160;50.504;3.666;2023-02-28T04:58:43;14.50;;;9.25;;
76344;SDS011;65160;50.504;3.666;2023-02-28T05:01:16;14.15;;;9.02;;
76344;SDS011;65160;50.504;3.666;2023-02-28T05:03:52;14.43;;;9.05;;
76344;SDS011;65160;50.504;3.666;2023-02-28T05:06:19;13.23;;;8.75;;
76344;SDS011;65160;50.504;3.666;2023-02-28T05:08:46;12.82;;;8.60;;
76344;SDS011;65160;50.504;3.666;2023-02-28T05:11:17;14.00;;;8.55;;
76344;SDS011;65160;50.504;3.666;2023-02-28T05:13:49;14.20;;;8.55;;
76344;SDS011;65160;50.504;3.666;2023-02-28T05:16:16;16.75;;;9.38;;
76344;SDS011;65160;50.504;3.666;2023-02-28T05:18:42;16.92;;;9.25;;
76344;SDS011;65160;50.504;3.666;2023-02-28T05:21:25;14.52;;;9.68;;
76344;SDS011;65160;50.504;3.666;2023-02-28T05:23:54;14.25;;;9.45;;
76344;SDS011;65160;50.504;3.666;2023-02-28T05:26:21;18.30;;;10.30;;
76344;SDS011;65160;50.504;3.666;2023-02-28T05:28:47;14.18;;;8.75;;
76344;SDS011;65160;50.504;3.666;2023-02-28T05:31:12;14.70;;;9.98;;
76344;SDS011;65160;50.504;3.666;2023-02-28T05:33:38;17.45;;;9.18;;
76344;SDS011;65160;50.504;3.666;2023-02-28T05:36:04;19.25;;;9.68;;
76344;SDS011;65160;50.504;3.666;2023-02-28T05:38:31;19.17;;;9.85;;
76344;SDS011;65160;50.504;3.666;2023-02-28T05:40:56;18.48;;;10.13;;
76344;SDS011;65160;50.504;3.666;2023-02-28T05:43:22;16.40;;;10.70;;
76344;SDS011;65160;50.504;3.666;2023-02-28T05:45:48;17.73;;;10.60;;
76344;SDS011;65160;50.504;3.666;2023-02-28T05:48:14;18.45;;;9.80;;
76344;SDS011;65160;50.504;3.666;2023-02-28T05:50:39;20.83;;;11.68;;
76344;SDS011;65160;50.504;3.666;2023-02-28T05:53:05;17.88;;;10.93;;
76344;SDS011;65160;50.504;3.666;2023-02-28T05:55:30;19.48;;;11.38;;
76344;SDS011;65160;50.504;3.666;2023-02-28T05:57:56;21.63;;;12.40;;
76344;SDS011;65160;50.504;3.666;2023-02-28T06:00:21;16.92;;;11.40;;
76344;SDS011;65160;50.504;3.666;2023-02-28T06:02:47;22.55;;;11.93;;
76344;SDS011;65160;50.504;3.666;2023-02-28T06:05:13;16.63;;;10.65;;
76344;SDS011;65160;50.504;3.666;2023-02-28T06:07:40;16.08;;;10.52;;
76344;SDS011;65160;50.504;3.666;2023-02-28T06:10:06;21.67;;;11.85;;
76344;SDS011;65160;50.504;3.666;2023-02-28T06:12:32;18.30;;;11.70;;
76344;SDS011;65160;50.504;3.666;2023-02-28T06:14:57;22.15;;;13.18;;
76344;SDS011;65160;50.504;3.666;2023-02-28T06:17:23;21.70;;;11.30;;
76344;SDS011;65160;50.504;3.666;2023-02-28T06:19:48;21.00;;;12.23;;
76344;SDS011;65160;50.504;3.666;2023-02-28T06:22:14;18.48;;;11.93;;
76344;SDS011;65160;50.504;3.666;2023-02-28T06:24:39;19.13;;;12.02;;
76344;SDS011;65160;50.504;3.666;2023-02-28T06:27:05;19.85;;;11.73;;
76344;SDS011;65160;50.504;3.666;2023-02-28T06:29:31;20.38;;;11.52;;
76344;SDS011;65160;50.504;3.666;2023-02-28T06:31:57;22.55;;;11.73;;
76344;SDS011;65160;50.504;3.666;2023-02-28T06:34:23;19.05;;;11.25;;
76344;SDS011;65160;50.504;3.666;2023-02-28T06:36:49;21.13;;;12.23;;
76344;SDS011;65160;50.504;3.666;2023-02-28T06:39:16;22.20;;;12.40;;
76344;SDS011;65160;50.504;3.666;2023-02-28T06:41:42;22.77;;;12.48;;
76344;SDS011;65160;50.504;3.666;2023-02-28T06:44:19;19.38;;;12.70;;
76344;SDS011;65160;50.504;3.666;2023-02-28T06:46:45;19.20;;;11.73;;
76344;SDS011;65160;50.504;3.666;2023-02-28T06:49:11;22.98;;;12.25;;
76344;SDS011;65160;50.504;3.666;2023-02-28T06:51:37;18.55;;;11.13;;
76344;SDS011;65160;50.504;3.666;2023-02-28T06:54:05;16.85;;;12.30;;
76344;SDS011;65160;50.504;3.666;2023-02-28T06:56:34;21.23;;;12.38;;
76344;SDS011;65160;50.504;3.666;2023-02-28T06:58:59;18.50;;;11.85;;
76344;SDS011;65160;50.504;3.666;2023-02-28T07:01:25;17.65;;;11.20;;
76344;SDS011;65160;50.504;3.666;2023-02-28T07:03:52;41.25;;;12.55;;
76344;SDS011;65160;50.504;3.666;2023-02-28T07:06:19;20.23;;;12.00;;
76344;SDS011;65160;50.504;3.666;2023-02-28T07:08:49;18.67;;;11.90;;
76344;SDS011;65160;50.504;3.666;2023-02-28T07:11:16;17.80;;;11.77;;
76344;SDS011;65160;50.504;3.666;2023-02-28T07:13:41;20.13;;;13.85;;
76344;SDS011;65160;50.504;3.666;2023-02-28T07:16:08;17.30;;;11.65;;
76344;SDS011;65160;50.504;3.666;2023-02-28T07:18:35;20.90;;;11.73;;
76344;SDS011;65160;50.504;3.666;2023-02-28T07:21:02;19.27;;;12.07;;
76344;SDS011;65160;50.504;3.666;2023-02-28T07:23:32;17.10;;;11.10;;
76344;SDS011;65160;50.504;3.666;2023-02-28T07:25:58;25.90;;;11.02;;
76344;SDS011;65160;50.504;3.666;2023-02-28T07:28:24;16.50;;;10.60;;
76344;SDS011;65160;50.504;3.666;2023-02-28T07:30:50;20.60;;;12.80;;
76344;SDS011;65160;50.504;3.666;2023-02-28T07:33:15;22.30;;;11.52;;
76344;SDS011;65160;50.504;3.666;2023-02-28T07:35:41;19.27;;;13.52;;
76344;SDS011;65160;50.504;3.666;2023-02-28T07:38:07;18.23;;;11.90;;
76344;SDS011;65160;50.504;3.666;2023-02-28T07:40:33;18.83;;;11.50;;
76344;SDS011;65160;50.504;3.666;2023-02-28T07:42:59;18.80;;;10.90;;
76344;SDS011;65160;50.504;3.666;2023-02-28T07:45:26;19.83;;;11.70;;
76344;SDS011;65160;50.504;3.666;2023-02-28T07:47:53;21.13;;;11.68;;
76344;SDS011;65160;50.504;3.666;2023-02-28T07:50:20;21.90;;;11.07;;
76344;SDS011;65160;50.504;3.666;2023-02-28T07:52:45;18.00;;;11.93;;
76344;SDS011;65160;50.504;3.666;2023-02-28T07:55:11;24.50;;;11.45;;
76344;SDS011;65160;50.504;3.666;2023-02-28T07:57:38;17.25;;;11.82;;
76344;SDS011;65160;50.504;3.666;2023-02-28T08:00:05;17.83;;;10.90;;
76344;SDS011;65160;50.504;3.666;2023-02-28T08:02:34;21.15;;;11.73;;
76344;SDS011;65160;50.504;3.666;2023-02-28T08:05:00;22.17;;;11.55;;
76344;SDS011;65160;50.504;3.666;2023-02-28T08:07:26;16.23;;;10.93;;
76344;SDS011;65160;50.504;3.666;2023-02-28T08:09:52;20.92;;;10.93;;
76344;SDS011;65160;50.504;3.666;2023-02-28T08:12:17;18.67;;;11.13;;
76344;SDS011;65160;50.504;3.666;2023-02-28T08:14:43;16.05;;;11.48;;
76344;SDS011;65160;50.504;3.666;2023-02-28T08:17:09;15.18;;;10.93;;
76344;SDS011;65160;50.504;3.666;2023-02-28T08:19:35;17.33;;;10.27;;
76344;SDS011;65160;50.504;3.666;2023-02-28T08:22:01;15.90;;;10.52;;
76344;SDS011;65160;50.504;3.666;2023-02-28T08:24:26;21.42;;;11.40;;
76344;SDS011;65160;50.504;3.666;2023-02-28T08:26:52;13.13;;;10.10;;
76344;SDS011;65160;50.504;3.666;2023-02-28T08:29:17;19.00;;;9.93;;
76344;SDS011;65160;50.504;3.666;2023-02-28T08:31:43;17.98;;;10.68;;
76344;SDS011;65160;50.504;3.666;2023-02-28T08:34:09;15.15;;;10.35;;
76344;SDS011;65160;50.504;3.666;2023-02-28T08:36:35;18.05;;;10.63;;
76344;SDS011;65160;50.504;3.666;2023-02-28T08:39:01;14.85;;;9.98;;
76344;SDS011;65160;50.504;3.666;2023-02-28T08:41:27;16.92;;;10.18;;
76344;SDS011;65160;50.504;3.666;2023-02-28T08:43:53;19.33;;;10.25;;
76344;SDS011;65160;50.504;3.666;2023-02-28T08:46:18;18.65;;;9.90;;
76344;SDS011;65160;50.504;3.666;2023-02-28T08:48:45;14.02;;;9.57;;
76344;SDS011;65160;50.504;3.666;2023-02-28T08:51:11;14.82;;;9.18;;
76344;SDS011;65160;50.504;3.666;2023-02-28T08:53:41;16.20;;;8.75;;
76344;SDS011;65160;50.504;3.666;2023-02-28T08:56:07;13.73;;;8.32;;
76344;SDS011;65160;50.504;3.666;2023-02-28T08:58:34;14.05;;;7.88;;
76344;SDS011;65160;50.504;3.666;2023-02-28T09:01:06;11.13;;;7.30;;
76344;SDS011;65160;50.504;3.666;2023-02-28T09:03:33;10.80;;;7.38;;
76344;SDS011;65160;50.504;3.666;2023-02-28T09:05:59;11.68;;;7.13;;
76344;SDS011;65160;50.504;3.666;2023-02-28T09:08:27;7.38;;;5.28;;
76344;SDS011;65160;50.504;3.666;2023-02-28T09:10:54;11.68;;;5.70;;
76344;SDS011;65160;50.504;3.666;2023-02-28T09:13:22;9.88;;;5.53;;
76344;SDS011;65160;50.504;3.666;2023-02-28T09:15:47;12.90;;;5.18;;
76344;SDS011;65160;50.504;3.666;2023-02-28T09:18:13;9.68;;;4.75;;
76344;SDS011;65160;50.504;3.666;2023-02-28T09:20:39;7.10;;;4.60;;
76344;SDS011;65160;50.504;3.666;2023-02-28T09:23:07;7.40;;;4.65;;
76344;SDS011;65160;50.504;3.666;2023-02-28T09:25:34;9.02;;;4.75;;
76344;SDS011;65160;50.504;3.666;2023-02-28T09:27:59;10.55;;;5.38;;
76344;SDS011;65160;50.504;3.666;2023-02-28T09:30:25;8.00;;;4.88;;
76344;SDS011;65160;50.504;3.666;2023-02-28T09:32:51;8.35;;;4.97;;
76344;SDS011;65160;50.504;3.666;2023-02-28T09:35:20;9.13;;;5.38;;
76344;SDS011;65160;50.504;3.666;2023-02-28T09:37:46;8.20;;;5.28;;
76344;SDS011;65160;50.504;3.666;2023-02-28T09:40:12;7.78;;;5.00;;
76344;SDS011;65160;50.504;3.666;2023-02-28T09:42:39;13.57;;;4.70;;
76344;SDS011;65160;50.504;3.666;2023-02-28T09:45:16;7.65;;;4.85;;
76344;SDS011;65160;50.504;3.666;2023-02-28T09:47:48;6.78;;;4.10;;
76344;SDS011;65160;50.504;3.666;2023-02-28T09:50:33;9.98;;;4.28;;
76344;SDS011;65160;50.504;3.666;2023-02-28T09:53:05;6.65;;;4.25;;
76344;SDS011;65160;50.504;3.666;2023-02-28T09:55:50;10.77;;;3.85;;
76344;SDS011;65160;50.504;3.666;2023-02-28T09:58:26;14.85;;;4.60;;
76344;SDS011;65160;50.504;3.666;2023-02-28T10:01:00;8.00;;;4.13;;
76344;SDS011;65160;50.504;3.666;2023-02-28T10:06:07;7.00;;;4.30;;
76344;SDS011;65160;50.504;3.666;2023-02-28T10:11:28;6.97;;;4.22;;
76344;SDS011;65160;50.504;3.666;2023-02-28T10:16:35;7.77;;;4.57;;
76344;SDS011;65160;50.504;3.666;2023-02-28T10:19:16;5.87;;;3.57;;
76344;SDS011;65160;50.504;3.666;2023-02-28T10:21:54;7.13;;;4.43;;
76344;SDS011;65160;50.504;3.666;2023-02-28T10:24:28;8.35;;;4.32;;
76344;SDS011;65160;50.504;3.666;2023-02-28T10:27:01;9.15;;;3.90;;
76344;SDS011;65160;50.504;3.666;2023-02-28T10:29:37;6.60;;;3.53;;
76344;SDS011;65160;50.504;3.666;2023-02-28T10:32:06;6.18;;;3.60;;
76344;SDS011;65160;50.504;3.666;2023-02-28T10:34:32;4.80;;;2.75;;
76344;SDS011;65160;50.504;3.666;2023-02-28T10:36:58;5.60;;;3.00;;
76344;SDS011;65160;50.504;3.666;2023-02-28T10:44:44;6.63;;;2.55;;
76344;SDS011;65160;50.504;3.666;2023-02-28T10:47:16;5.20;;;2.10;;
76344;SDS011;65160;50.504;3.666;2023-02-28T10:49:48;5.25;;;2.55;;
76344;SDS011;65160;50.504;3.666;2023-02-28T10:52:16;5.07;;;2.63;;
76344;SDS011;65160;50.504;3.666;2023-02-28T10:55:21;8.80;;;2.58;;
76344;SDS011;65160;50.504;3.666;2023-02-28T10:57:50;5.35;;;3.05;;
76344;SDS011;65160;50.504;3.666;2023-02-28T11:00:21;7.10;;;2.72;;
76344;SDS011;65160;50.504;3.666;2023-02-28T11:02:50;4.57;;;2.55;;
76344;SDS011;65160;50.504;3.666;2023-02-28T11:08:04;6.45;;;3.40;;
76344;SDS011;65160;50.504;3.666;2023-02-28T11:10:36;5.43;;;3.00;;
76344;SDS011;65160;50.504;3.666;2023-02-28T11:13:02;6.07;;;2.72;;
76344;SDS011;65160;50.504;3.666;2023-02-28T11:15:32;5.85;;;2.55;;
76344;SDS011;65160;50.504;3.666;2023-02-28T11:18:04;5.77;;;3.10;;
76344;SDS011;65160;50.504;3.666;2023-02-28T11:20:37;6.53;;;3.47;;
76344;SDS011;65160;50.504;3.666;2023-02-28T11:23:04;7.03;;;3.30;;
76344;SDS011;65160;50.504;3.666;2023-02-28T11:28:03;8.43;;;3.20;;
76344;SDS011;65160;50.504;3.666;2023-02-28T11:36:00;6.18;;;3.13;;
76344;SDS011;65160;50.504;3.666;2023-02-28T11:38:34;5.38;;;2.97;;
76344;SDS011;65160;50.504;3.666;2023-02-28T11:46:47;4.45;;;2.60;;
76344;SDS011;65160;50.504;3.666;2023-02-28T12:08:31;8.63;;;3.15;;
76344;SDS011;65160;50.504;3.666;2023-02-28T12:11:06;5.10;;;2.58;;
76344;SDS011;65160;50.504;3.666;2023-02-28T12:27:12;7.20;;;3.03;;
76344;SDS011;65160;50.504;3.666;2023-02-28T12:29:58;5.75;;;2.97;;
76344;SDS011;65160;50.504;3.666;2023-02-28T12:32:41;10.82;;;3.03;;
76344;SDS011;65160;50.504;3.666;2023-02-28T12:37:50;6.00;;;2.90;;
76344;SDS011;65160;50.504;3.666;2023-02-28T12:40:21;5.43;;;2.88;;
76344;SDS011;65160;50.504;3.666;2023-02-28T12:42:52;5.20;;;2.67;;
76344;SDS011;65160;50.504;3.666;2023-02-28T12:45:27;6.15;;;3.08;;
76344;SDS011;65160;50.504;3.666;2023-02-28T12:48:06;5.65;;;2.75;;
76344;SDS011;65160;50.504;3.666;2023-02-28T12:50:37;6.15;;;3.20;;
76344;SDS011;65160;50.504;3.666;2023-02-28T12:53:04;6.38;;;3.10;;
76344;SDS011;65160;50.504;3.666;2023-02-28T12:55:48;5.75;;;2.95;;
76344;SDS011;65160;50.504;3.666;2023-02-28T13:01:15;5.70;;;3.00;;
76344;SDS011;65160;50.504;3.666;2023-02-28T13:09:09;5.40;;;3.03;;
76344;SDS011;65160;50.504;3.666;2023-02-28T13:11:38;5.80;;;3.08;;
76344;SDS011;65160;50.504;3.666;2023-02-28T13:17:18;6.45;;;3.20;;
76344;SDS011;65160;50.504;3.666;2023-02-28T13:19:45;6.10;;;3.47;;
76344;SDS011;65160;50.504;3.666;2023-02-28T13:25:00;10.88;;;3.75;;
76344;SDS011;65160;50.504;3.666;2023-02-28T13:27:44;5.93;;;3.65;;
76344;SDS011;65160;50.504;3.666;2023-02-28T13:35:48;7.43;;;4.00;;
76344;SDS011;65160;50.504;3.666;2023-02-28T13:38:31;5.13;;;3.15;;
76344;SDS011;65160;50.504;3.666;2023-02-28T13:44:37;7.22;;;3.55;;
76344;SDS011;65160;50.504;3.666;2023-02-28T13:49:33;8.05;;;3.30;;
76344;SDS011;65160;50.504;3.666;2023-02-28T14:02:55;6.57;;;3.47;;
76344;SDS011;65160;50.504;3.666;2023-02-28T14:05:33;5.50;;;3.47;;
76344;SDS011;65160;50.504;3.666;2023-02-28T14:08:03;6.45;;;3.90;;
76344;SDS011;65160;50.504;3.666;2023-02-28T14:10:37;6.93;;;3.60;;
76344;SDS011;65160;50.504;3.666;2023-02-28T14:13:12;6.55;;;3.90;;
76344;SDS011;65160;50.504;3.666;2023-02-28T14:15:59;6.30;;;3.60;;
76344;SDS011;65160;50.504;3.666;2023-02-28T14:18:31;5.18;;;3.40;;
76344;SDS011;65160;50.504;3.666;2023-02-28T14:21:01;5.70;;;3.50;;
76344;SDS011;65160;50.504;3.666;2023-02-28T14:32:06;6.70;;;3.63;;
76344;SDS011;65160;50.504;3.666;2023-02-28T14:35:29;8.77;;;3.35;;
76344;SDS011;65160;50.504;3.666;2023-02-28T14:37:41;5.75;;;3.45;;
76344;SDS011;65160;50.504;3.666;2023-02-28T14:40:19;6.03;;;3.53;;
76344;SDS011;65160;50.504;3.666;2023-02-28T14:42:57;6.00;;;3.72;;
76344;SDS011;65160;50.504;3.666;2023-02-28T14:45:31;7.20;;;3.90;;
76344;SDS011;65160;50.504;3.666;2023-02-28T14:47:59;8.23;;;4.40;;
76344;SDS011;65160;50.504;3.666;2023-02-28T14:50:27;7.90;;;4.20;;
76344;SDS011;65160;50.504;3.666;2023-02-28T14:52:56;6.72;;;3.72;;
76344;SDS011;65160;50.504;3.666;2023-02-28T14:55:26;8.13;;;4.03;;
76344;SDS011;65160;50.504;3.666;2023-02-28T14:57:56;5.93;;;3.80;;
76344;SDS011;65160;50.504;3.666;2023-02-28T15:00:28;5.45;;;3.42;;
76344;SDS011;65160;50.504;3.666;2023-02-28T15:02:56;10.45;;;3.90;;
76344;SDS011;65160;50.504;3.666;2023-02-28T15:05:24;6.40;;;3.80;;
76344;SDS011;65160;50.504;3.666;2023-02-28T15:10:50;5.47;;;3.42;;
76344;SDS011;65160;50.504;3.666;2023-02-28T15:13:30;8.32;;;4.10;;
76344;SDS011;65160;50.504;3.666;2023-02-28T15:16:12;7.10;;;3.88;;
76344;SDS011;65160;50.504;3.666;2023-02-28T15:18:49;7.28;;;3.70;;
76344;SDS011;65160;50.504;3.666;2023-02-28T15:21:21;7.18;;;3.45;;
76344;SDS011;65160;50.504;3.666;2023-02-28T15:23:53;7.13;;;3.70;;
76344;SDS011;65160;50.504;3.666;2023-02-28T15:26:30;6.53;;;3.40;;
76344;SDS011;65160;50.504;3.666;2023-02-28T15:28:59;5.87;;;3.37;;
76344;SDS011;65160;50.504;3.666;2023-02-28T15:31:48;6.53;;;3.88;;
76344;SDS011;65160;50.504;3.666;2023-02-28T15:37:28;8.68;;;3.83;;
76344;SDS011;65160;50.504;3.666;2023-02-28T15:40:16;7.00;;;4.05;;
76344;SDS011;65160;50.504;3.666;2023-02-28T15:42:42;6.68;;;3.40;;
76344;SDS011;65160;50.504;3.666;2023-02-28T15:45:29;6.60;;;3.60;;
76344;SDS011;65160;50.504;3.666;2023-02-28T15:48:02;6.32;;;3.88;;
76344;SDS011;65160;50.504;3.666;2023-02-28T15:50:28;9.40;;;6.18;;
76344;SDS011;65160;50.504;3.666;2023-02-28T15:52:54;10.20;;;4.97;;
76344;SDS011;65160;50.504;3.666;2023-02-28T15:55:21;15.77;;;9.52;;
76344;SDS011;65160;50.504;3.666;2023-02-28T15:57:48;6.30;;;3.50;;
76344;SDS011;65160;50.504;3.666;2023-02-28T16:02:45;5.15;;;3.40;;
76344;SDS011;65160;50.504;3.666;2023-02-28T16:07:38;5.85;;;3.42;;
76344;SDS011;65160;50.504;3.666;2023-02-28T16:10:05;5.68;;;3.33;;
76344;SDS011;65160;50.504;3.666;2023-02-28T16:12:33;7.60;;;3.90;;
76344;SDS011;65160;50.504;3.666;2023-02-28T16:15:06;8.70;;;4.55;;
76344;SDS011;65160;50.504;3.666;2023-02-28T16:17:35;6.35;;;3.17;;
76344;SDS011;65160;50.504;3.666;2023-02-28T16:22:52;6.50;;;3.45;;
76344;SDS011;65160;50.504;3.666;2023-02-28T16:25:19;7.72;;;3.20;;
76344;SDS011;65160;50.504;3.666;2023-02-28T16:27:49;9.50;;;5.60;;
76344;SDS011;65160;50.504;3.666;2023-02-28T16:30:22;8.70;;;6.22;;
76344;SDS011;65160;50.504;3.666;2023-02-28T16:35:16;6.57;;;3.58;;
76344;SDS011;65160;50.504;3.666;2023-02-28T16:37:43;6.72;;;3.63;;
76344;SDS011;65160;50.504;3.666;2023-02-28T16:40:16;8.23;;;5.05;;
76344;SDS011;65160;50.504;3.666;2023-02-28T16:42:43;6.65;;;4.18;;
76344;SDS011;65160;50.504;3.666;2023-02-28T16:45:31;7.45;;;4.28;;
76344;SDS011;65160;50.504;3.666;2023-02-28T16:47:56;6.63;;;3.80;;
76344;SDS011;65160;50.504;3.666;2023-02-28T16:50:26;7.95;;;5.05;;
76344;SDS011;65160;50.504;3.666;2023-02-28T16:52:53;6.78;;;4.53;;
76344;SDS011;65160;50.504;3.666;2023-02-28T16:55:20;8.93;;;4.97;;
76344;SDS011;65160;50.504;3.666;2023-02-28T16:57:48;5.90;;;4.00;;
76344;SDS011;65160;50.504;3.666;2023-02-28T17:00:17;7.40;;;4.00;;
76344;SDS011;65160;50.504;3.666;2023-02-28T17:02:42;7.53;;;4.20;;
76344;SDS011;65160;50.504;3.666;2023-02-28T17:05:10;11.80;;;7.68;;
76344;SDS011;65160;50.504;3.666;2023-02-28T17:07:36;12.90;;;5.93;;
76344;SDS011;65160;50.504;3.666;2023-02-28T17:10:05;11.88;;;5.82;;
76344;SDS011;65160;50.504;3.666;2023-02-28T17:12:44;14.63;;;4.72;;
76344;SDS011;65160;50.504;3.666;2023-02-28T17:15:10;7.47;;;4.18;;
76344;SDS011;65160;50.504;3.666;2023-02-28T17:17:37;8.35;;;4.38;;
76344;SDS011;65160;50.504;3.666;2023-02-28T17:20:03;8.75;;;5.03;;
76344;SDS011;65160;50.504;3.666;2023-02-28T17:22:30;8.80;;;4.93;;
76344;SDS011;65160;50.504;3.666;2023-02-28T17:24:56;5.22;;;3.08;;
76344;SDS011;65160;50.504;3.666;2023-02-28T17:27:22;9.50;;;6.88;;
76344;SDS011;65160;50.504;3.666;2023-02-28T17:29:48;7.93;;;4.47;;
76344;SDS011;65160;50.504;3.666;2023-02-28T17:32:13;11.43;;;7.45;;
76344;SDS011;65160;50.504;3.666;2023-02-28T17:34:39;9.02;;;5.32;;
76344;SDS011;65160;50.504;3.666;2023-02-28T17:37:04;7.30;;;4.80;;
76344;SDS011;65160;50.504;3.666;2023-02-28T17:39:30;8.95;;;5.38;;
76344;SDS011;65160;50.504;3.666;2023-02-28T17:41:56;19.17;;;10.32;;
76344;SDS011;65160;50.504;3.666;2023-02-28T17:44:22;50.78;;;24.35;;